St Pierre — FIDX — position and weather

sailwx.info

Track history (hours):
 
Tides and Currents Weather Stations Pressure Air Temp Water Temp Dewpoint Dewpoint Depression Visibility Wind Speed Wind Dir Waves Ship Positions

St Pierre

Last reported at 2015-Sep-03 08:25 UTC. Time now 2015-Sep-03 10:58 UTC.
Position N 47°18' W 002°04'.

Length 84 m; draft 6.2 m.

Type: Cargo ship. MMSI: 228024800.

Date/timePositionNaut miles runAvg speedWind from/ knotsBaromVisibWave heightAir tempDewpointWater temp
2015-Sep-03 08:25N 47°18' W 002°04'1011.1
2015-Sep-03 07:33N 47°15' W 001°51'9 8.7
2015-Sep-03 06:33N 47°12' W 001°39'1 0.7
2015-Sep-03 05:32N 47°12' W 001°38'0 0.0
2015-Sep-03 04:28N 47°12' W 001°38'0 0.0
2015-Sep-03 03:33N 47°12' W 001°38'0 0.0
2015-Sep-03 02:32N 47°12' W 001°38'0 0.0
2015-Sep-03 01:33N 47°12' W 001°38'0 0.0
2015-Sep-03 00:33N 47°12' W 001°38'0 0.0
2015-Sep-02 23:34N 47°12' W 001°38'0 0.0
2015-Sep-02 22:33N 47°12' W 001°38'0 0.0
2015-Sep-02 21:33N 47°12' W 001°38'0 0.0
2015-Sep-02 20:28N 47°12' W 001°38'26 2.2
2015-Sep-02 08:32N 47°14' W 002°16'27626900.2
2015-Sep-02 08:32N 50°58' E 001°51'269273.8
2015-Sep-02 07:33N 47°18' W 002°07'0 0.0
2015-Sep-02 06:33N 47°18' W 002°07'0 0.0
2015-Sep-02 05:34N 47°18' W 002°07'0 0.0
2015-Sep-02 04:33N 47°18' W 002°07'0 0.0
2015-Sep-02 03:33N 47°18' W 002°07'0 0.0
2015-Sep-02 02:33N 47°18' W 002°07'0 0.0
2015-Sep-02 01:34N 47°18' W 002°07'0 0.0
2015-Sep-02 00:34N 47°18' W 002°07'0 0.0
2015-Sep-01 23:33N 47°18' W 002°07'0 0.0
2015-Sep-01 22:31N 47°18' W 002°07'0 0.0
2015-Sep-01 21:33N 47°18' W 002°07'0 0.0
2015-Sep-01 01:29N 47°18' W 002°07'0 0.0
2015-Sep-01 00:22N 47°18' W 002°07'0 0.0
2015-Aug-31 23:33N 47°18' W 002°07'0 0.0
2015-Aug-31 22:33N 47°18' W 002°07'0 0.0
2015-Aug-31 08:32N 47°18' W 002°07'0 0.0
2015-Aug-31 07:18N 47°18' W 002°07'0 0.0
2015-Aug-31 06:09N 47°18' W 002°07'0 0.0
2015-Aug-31 05:33N 47°18' W 002°07'0 0.0
2015-Aug-31 04:34N 47°18' W 002°07'0 0.0
2015-Aug-31 03:33N 47°18' W 002°07'0 0.0
2015-Aug-31 02:26N 47°18' W 002°07'0 0.0
2015-Aug-31 01:34N 47°18' W 002°07'0 0.0
2015-Aug-31 00:34N 47°18' W 002°07'0 0.0
2015-Aug-30 23:34N 47°18' W 002°07'0 0.0
2015-Aug-30 22:33N 47°18' W 002°07'0 0.0
2015-Aug-30 21:34N 47°18' W 002°07'0 0.0
2015-Aug-30 20:34N 47°18' W 002°07'1 1.1
2015-Aug-30 19:33N 47°18' W 002°06'1212.4
2015-Aug-30 18:33N 47°13' W 001°49'8 7.7
2015-Aug-30 17:33N 47°12' W 001°38'0 0.0
2015-Aug-30 16:33N 47°12' W 001°38'0 0.0
2015-Aug-30 15:31N 47°12' W 001°38'18 9.0
2015-Aug-30 13:32N 47°18' W 002°02'1312.0
2015-Aug-30 12:27N 47°10' W 002°18'6 6.6
2015-Aug-30 11:33N 47°05' W 002°22'0 0.0
2015-Aug-30 10:34N 47°05' W 002°22'0 0.1
2015-Aug-30 09:33N 47°05' W 002°22'0 0.4
2015-Aug-30 08:33N 47°05' W 002°22'1212.0
2015-Aug-30 07:33N 47°15' W 002°13'1312.7
2015-Aug-30 06:33N 47°17' W 001°54'1110.9
2015-Aug-30 05:33N 47°12' W 001°40'1 1.4
2015-Aug-30 04:34N 47°12' W 001°38'0 0.0
2015-Aug-30 03:33N 47°12' W 001°38'0 0.0
2015-Aug-30 02:33N 47°12' W 001°38'0 0.0
2015-Aug-30 01:33N 47°12' W 001°38'0 0.0
2015-Aug-30 00:33N 47°12' W 001°38'0 0.0
2015-Aug-29 23:33N 47°12' W 001°38'0 0.0
2015-Aug-29 22:33N 47°12' W 001°38'0 0.0
2015-Aug-29 21:33N 47°12' W 001°38'0 0.0
2015-Aug-29 20:30N 47°12' W 001°38'0 0.0
2015-Aug-29 19:33N 47°12' W 001°38'26453.1
2015-Aug-29 14:34N 51°05' E 001°32'265600.2
2015-Aug-29 14:07N 47°12' W 001°40'2710.2
2015-Aug-29 11:27N 47°09' W 002°19'4 4.5
2015-Aug-29 10:33N 47°05' W 002°21'0 0.0
2015-Aug-29 09:33N 47°05' W 002°21'0 0.3
2015-Aug-29 08:33N 47°05' W 002°22'0 0.3
2015-Aug-29 07:33N 47°05' W 002°22'1211.6
2015-Aug-29 06:33N 47°15' W 002°14'5 5.4
2015-Aug-29 05:33N 47°18' W 002°07'0 0.0
2015-Aug-29 04:34N 47°18' W 002°07'0 0.0
2015-Aug-29 03:34N 47°18' W 002°07'0 0.0
2015-Aug-29 02:28N 47°18' W 002°07'0 0.0
2015-Aug-29 01:32N 47°18' W 002°07'0 0.0
2015-Aug-29 00:33N 47°18' W 002°07'0 0.0
2015-Aug-28 23:26N 47°18' W 002°07'0 0.0
2015-Aug-28 22:33N 47°18' W 002°07'0 0.0
2015-Aug-28 21:30N 47°18' W 002°07'0 0.0
2015-Aug-28 20:32N 47°18' W 002°07'0 0.0
2015-Aug-28 19:33N 47°18' W 002°07'0 0.0
2015-Aug-28 18:30N 47°18' W 002°07'1011.0
2015-Aug-28 17:33N 47°16' W 001°52'11 5.2
2015-Aug-28 15:30N 47°12' W 001°38'0 0.0
2015-Aug-28 14:31N 47°12' W 001°38'10 9.1
2015-Aug-28 13:25N 47°16' W 001°51'1111.9
2015-Aug-28 12:29N 47°18' W 002°07'1212.4
2015-Aug-28 11:33N 47°10' W 002°19'5 4.9
2015-Aug-28 10:32N 47°05' W 002°22'0 0.1
2015-Aug-28 09:32N 47°05' W 002°22'0 0.3
2015-Aug-28 08:33N 47°05' W 002°21'0 0.1
2015-Aug-28 07:33N 47°05' W 002°22'6 6.4
2015-Aug-28 06:33N 47°11' W 002°18'1010.0
2015-Aug-28 05:32N 47°18' W 002°07'0 0.0
2015-Aug-28 04:22N 47°18' W 002°07'0 0.0
2015-Aug-28 03:33N 47°18' W 002°07'0 0.0
2015-Aug-28 02:18N 47°18' W 002°07'0 0.0
2015-Aug-28 00:18N 47°18' W 002°07'0 0.0
2015-Aug-27 00:30N 47°18' W 002°07'0 0.0
2015-Aug-26 23:31N 47°18' W 002°07'0 0.0
2015-Aug-26 22:19N 47°18' W 002°07'0 0.0
2015-Aug-26 21:27N 47°18' W 002°07'0 0.0
2015-Aug-26 20:33N 47°18' W 002°07'0 0.0
2015-Aug-26 19:33N 47°18' W 002°07'0 0.0
2015-Aug-26 18:33N 47°18' W 002°07'0 0.0
2015-Aug-26 17:33N 47°18' W 002°07'0 0.0
2015-Aug-26 16:33N 47°18' W 002°07'0 0.0
2015-Aug-26 07:32N 47°18' W 002°07'0 0.0
2015-Aug-26 06:33N 47°18' W 002°07'0 0.0
2015-Aug-26 05:34N 47°18' W 002°07'0 0.0
2015-Aug-26 04:27N 47°18' W 002°07'0 0.0
2015-Aug-25 23:12N 47°18' W 002°07'0 0.0
2015-Aug-25 22:33N 47°18' W 002°07'0 0.0
2015-Aug-25 11:32N 47°18' W 002°07'0 0.0
2015-Aug-25 02:21N 47°18' W 002°07'0 0.0
2015-Aug-25 01:31N 47°18' W 002°07'5 0.3
2015-Aug-24 10:24N 47°17' W 002°00'  
Track history (hours):
 
Tides and Currents Weather Stations Pressure Air Temp Water Temp Dewpoint Dewpoint Depression Visibility Wind Speed Wind Dir Waves Ship Positions

St Pierre

Last reported at 2015-Sep-03 08:25 UTC. Time now 2015-Sep-03 10:58 UTC.
Position N 47°18' W 002°04'.

Length 84 m; draft 6.2 m.

Type: Cargo ship. MMSI: 228024800.

Date/timePositionNaut miles runAvg speedWind from/ knotsBaromVisibWave heightAir tempDewpointWater temp
2015-Sep-03 08:25N 47°18' W 002°04'1011.1
2015-Sep-03 07:33N 47°15' W 001°51'9 8.7
2015-Sep-03 06:33N 47°12' W 001°39'1 0.7
2015-Sep-03 05:32N 47°12' W 001°38'0 0.0
2015-Sep-03 04:28N 47°12' W 001°38'0 0.0
2015-Sep-03 03:33N 47°12' W 001°38'0 0.0
2015-Sep-03 02:32N 47°12' W 001°38'0 0.0
2015-Sep-03 01:33N 47°12' W 001°38'0 0.0
2015-Sep-03 00:33N 47°12' W 001°38'0 0.0
2015-Sep-02 23:34N 47°12' W 001°38'0 0.0
2015-Sep-02 22:33N 47°12' W 001°38'0 0.0
2015-Sep-02 21:33N 47°12' W 001°38'0 0.0
2015-Sep-02 20:28N 47°12' W 001°38'26 2.2
2015-Sep-02 08:32N 47°14' W 002°16'27626900.2
2015-Sep-02 08:32N 50°58' E 001°51'269273.8
2015-Sep-02 07:33N 47°18' W 002°07'0 0.0
2015-Sep-02 06:33N 47°18' W 002°07'0 0.0
2015-Sep-02 05:34N 47°18' W 002°07'0 0.0
2015-Sep-02 04:33N 47°18' W 002°07'0 0.0
2015-Sep-02 03:33N 47°18' W 002°07'0 0.0
2015-Sep-02 02:33N 47°18' W 002°07'0 0.0
2015-Sep-02 01:34N 47°18' W 002°07'0 0.0
2015-Sep-02 00:34N 47°18' W 002°07'0 0.0
2015-Sep-01 23:33N 47°18' W 002°07'0 0.0
2015-Sep-01 22:31N 47°18' W 002°07'0 0.0
2015-Sep-01 21:33N 47°18' W 002°07'0 0.0
2015-Sep-01 01:29N 47°18' W 002°07'0 0.0
2015-Sep-01 00:22N 47°18' W 002°07'0 0.0
2015-Aug-31 23:33N 47°18' W 002°07'0 0.0
2015-Aug-31 22:33N 47°18' W 002°07'0 0.0
2015-Aug-31 08:32N 47°18' W 002°07'0 0.0
2015-Aug-31 07:18N 47°18' W 002°07'0 0.0
2015-Aug-31 06:09N 47°18' W 002°07'0 0.0
2015-Aug-31 05:33N 47°18' W 002°07'0 0.0
2015-Aug-31 04:34N 47°18' W 002°07'0 0.0
2015-Aug-31 03:33N 47°18' W 002°07'0 0.0
2015-Aug-31 02:26N 47°18' W 002°07'0 0.0
2015-Aug-31 01:34N 47°18' W 002°07'0 0.0
2015-Aug-31 00:34N 47°18' W 002°07'0 0.0
2015-Aug-30 23:34N 47°18' W 002°07'0 0.0
2015-Aug-30 22:33N 47°18' W 002°07'0 0.0
2015-Aug-30 21:34N 47°18' W 002°07'0 0.0
2015-Aug-30 20:34N 47°18' W 002°07'1 1.1
2015-Aug-30 19:33N 47°18' W 002°06'1212.4
2015-Aug-30 18:33N 47°13' W 001°49'8 7.7
2015-Aug-30 17:33N 47°12' W 001°38'0 0.0
2015-Aug-30 16:33N 47°12' W 001°38'0 0.0
2015-Aug-30 15:31N 47°12' W 001°38'18 9.0
2015-Aug-30 13:32N 47°18' W 002°02'1312.0
2015-Aug-30 12:27N 47°10' W 002°18'6 6.6
2015-Aug-30 11:33N 47°05' W 002°22'0 0.0
2015-Aug-30 10:34N 47°05' W 002°22'0 0.1
2015-Aug-30 09:33N 47°05' W 002°22'0 0.4
2015-Aug-30 08:33N 47°05' W 002°22'1212.0
2015-Aug-30 07:33N 47°15' W 002°13'1312.7
2015-Aug-30 06:33N 47°17' W 001°54'1110.9
2015-Aug-30 05:33N 47°12' W 001°40'1 1.4
2015-Aug-30 04:34N 47°12' W 001°38'0 0.0
2015-Aug-30 03:33N 47°12' W 001°38'0 0.0
2015-Aug-30 02:33N 47°12' W 001°38'0 0.0
2015-Aug-30 01:33N 47°12' W 001°38'0 0.0
2015-Aug-30 00:33N 47°12' W 001°38'0 0.0
2015-Aug-29 23:33N 47°12' W 001°38'0 0.0
2015-Aug-29 22:33N 47°12' W 001°38'0 0.0
2015-Aug-29 21:33N 47°12' W 001°38'0 0.0
2015-Aug-29 20:30N 47°12' W 001°38'0 0.0
2015-Aug-29 19:33N 47°12' W 001°38'26453.1
2015-Aug-29 14:34N 51°05' E 001°32'265600.2
2015-Aug-29 14:07N 47°12' W 001°40'2710.2
2015-Aug-29 11:27N 47°09' W 002°19'4 4.5
2015-Aug-29 10:33N 47°05' W 002°21'0 0.0
2015-Aug-29 09:33N 47°05' W 002°21'0 0.3
2015-Aug-29 08:33N 47°05' W 002°22'0 0.3
2015-Aug-29 07:33N 47°05' W 002°22'1211.6
2015-Aug-29 06:33N 47°15' W 002°14'5 5.4
2015-Aug-29 05:33N 47°18' W 002°07'0 0.0
2015-Aug-29 04:34N 47°18' W 002°07'0 0.0
2015-Aug-29 03:34N 47°18' W 002°07'0 0.0
2015-Aug-29 02:28N 47°18' W 002°07'0 0.0
2015-Aug-29 01:32N 47°18' W 002°07'0 0.0
2015-Aug-29 00:33N 47°18' W 002°07'0 0.0
2015-Aug-28 23:26N 47°18' W 002°07'0 0.0
2015-Aug-28 22:33N 47°18' W 002°07'0 0.0
2015-Aug-28 21:30N 47°18' W 002°07'0 0.0
2015-Aug-28 20:32N 47°18' W 002°07'0 0.0
2015-Aug-28 19:33N 47°18' W 002°07'0 0.0
2015-Aug-28 18:30N 47°18' W 002°07'1011.0
2015-Aug-28 17:33N 47°16' W 001°52'11 5.2
2015-Aug-28 15:30N 47°12' W 001°38'0 0.0
2015-Aug-28 14:31N 47°12' W 001°38'10 9.1
2015-Aug-28 13:25N 47°16' W 001°51'1111.9
2015-Aug-28 12:29N 47°18' W 002°07'1212.4
2015-Aug-28 11:33N 47°10' W 002°19'5 4.9
2015-Aug-28 10:32N 47°05' W 002°22'0 0.1
2015-Aug-28 09:32N 47°05' W 002°22'0 0.3
2015-Aug-28 08:33N 47°05' W 002°21'0 0.1
2015-Aug-28 07:33N 47°05' W 002°22'6 6.4
2015-Aug-28 06:33N 47°11' W 002°18'1010.0
2015-Aug-28 05:32N 47°18' W 002°07'0 0.0
2015-Aug-28 04:22N 47°18' W 002°07'0 0.0
2015-Aug-28 03:33N 47°18' W 002°07'0 0.0
2015-Aug-28 02:18N 47°18' W 002°07'0 0.0
2015-Aug-28 00:18N 47°18' W 002°07'0 0.0
2015-Aug-27 00:30N 47°18' W 002°07'0 0.0
2015-Aug-26 23:31N 47°18' W 002°07'0 0.0
2015-Aug-26 22:19N 47°18' W 002°07'0 0.0
2015-Aug-26 21:27N 47°18' W 002°07'0 0.0
2015-Aug-26 20:33N 47°18' W 002°07'0 0.0
2015-Aug-26 19:33N 47°18' W 002°07'0 0.0
2015-Aug-26 18:33N 47°18' W 002°07'0 0.0
2015-Aug-26 17:33N 47°18' W 002°07'0 0.0
2015-Aug-26 16:33N 47°18' W 002°07'0 0.0
2015-Aug-26 07:32N 47°18' W 002°07'0 0.0
2015-Aug-26 06:33N 47°18' W 002°07'0 0.0
2015-Aug-26 05:34N 47°18' W 002°07'0 0.0
2015-Aug-26 04:27N 47°18' W 002°07'0 0.0
2015-Aug-25 23:12N 47°18' W 002°07'0 0.0
2015-Aug-25 22:33N 47°18' W 002°07'0 0.0
2015-Aug-25 11:32N 47°18' W 002°07'0 0.0
2015-Aug-25 02:21N 47°18' W 002°07'0 0.0
2015-Aug-25 01:31N 47°18' W 002°07'5 0.3
2015-Aug-24 10:24N 47°17' W 002°00'  

Dump ship's entire track history